Flight Track Log - Related Links

Times and Time Zones

All times are in EST time to prevent confusion due to time zone crossing. See the N6036Y flight status page for this flight to view local times or setup timezone preferences in your user account.

Time Position Orientation Groundspeed Altitude Reporting Facility
EST Latitude Longitude Course Direction KTS MPH feet Rate Location/Type
Thu 03:59:58 PM 29.0492 -80.9403 77° East 67 77 500  Level Jacksonville Center
Thu 04:01:17 PM 29.0550 -80.9117 77° East 80 92 1,400 735 Climbing Jacksonville Center
Thu 04:02:25 PM 29.0656 -80.9208 323° Northwest 69 79 2,300 787 Climbing Jacksonville Center
Thu 04:03:19 PM 29.0639 -80.9422 265° West 72 83 3,000 744 Climbing Jacksonville Center
Thu 04:04:26 PM 29.0536 -80.9639 242° Southwest 72 83 3,800 690 Climbing Jacksonville Center
Thu 04:06:13 PM 29.0500 -81.0000 263° West 50 58 5,000 467 Climbing Orlando TRACON
Thu 04:07:13 PM 29.0667 -81.0167 319° Northwest 73 84 5,100 350 Climbing Orlando TRACON
Thu 04:08:13 PM 29.0667 -81.0333 270° West 58 67 5,700 429 Climbing Orlando TRACON
Thu 04:09:19 PM 29.0500 -81.0500 221° Southwest 69 79 6,000 189 Climbing Orlando TRACON
Thu 04:10:20 PM 29.0500 -81.0667 270° West 80 92 6,100  Climbing Orlando TRACON
Thu 04:11:20 PM 29.0333 -81.1000 240° Southwest 90 104 6,000  Descending Orlando TRACON
Thu 04:12:20 PM 29.0333 -81.1167 270° West 75 86 6,100 50 Climbing Orlando TRACON
Thu 04:13:21 PM 29.0167 -81.1500 240° Southwest 74 85 6,100 -50 Level Orlando TRACON
Thu 04:14:21 PM 29.0167 -81.1667 270° West 79 91 6,000 -50 Descending Orlando TRACON
Thu 04:15:21 PM 29.0000 -81.1833 221° Southwest 76 87 6,000  Level Orlando TRACON
Thu 04:16:27 PM 28.9833 -81.2167 240° Southwest 75 86 6,000  Level Orlando TRACON
Thu 04:17:27 PM 28.9833 -81.2333 270° West 87 100 6,000  Level Orlando TRACON
Thu 04:18:21 PM 28.9667 -81.2500 221° Southwest 84 97 6,000  Level Orlando TRACON
Thu 04:19:21 PM 28.9667 -81.2833 270° West 83 96 6,000  Level Orlando TRACON
Thu 04:20:21 PM 28.9500 -81.3000 221° Southwest 80 92 6,000  Level Orlando TRACON
Thu 04:21:22 PM 28.9500 -81.3333 270° West 76 87 6,000  Level Orlando TRACON
Thu 04:22:22 PM 28.9333 -81.3500 221° Southwest 80 92 6,000  Level Orlando TRACON
Thu 04:23:16 PM 28.9333 -81.3667 270° West 84 97 6,000  Level Orlando TRACON
Thu 04:24:16 PM 28.9167 -81.4000 240° Southwest 83 96 6,000  Level Orlando TRACON
Thu 04:25:16 PM 28.9000 -81.4000 180° South 102 117 6,000  Level Orlando TRACON
Thu 04:26:17 PM 28.8667 -81.4167 204° Southwest 100 115 6,000  Level Orlando TRACON
Thu 04:27:23 PM 28.8333 -81.4167 180° South 98 113 6,000  Level Orlando TRACON
Thu 04:28:17 PM 28.8167 -81.4333 221° Southwest 94 108 6,000  Level Orlando TRACON
Thu 04:29:23 PM 28.8000 -81.4500 221° Southwest 90 104 6,000  Level Orlando TRACON
Thu 04:30:17 PM 28.7833 -81.4667 221° Southwest 89 102 6,000  Level Orlando TRACON
Thu 04:31:17 PM 28.7500 -81.4833 204° Southwest 86 99 6,000  Level Orlando TRACON
Thu 04:32:18 PM 28.7333 -81.5000 221° Southwest 85 98 6,000  Level Orlando TRACON
Thu 04:33:18 PM 28.7167 -81.5167 221° Southwest 84 97 6,000  Level Orlando TRACON
Thu 04:34:18 PM 28.7000 -81.5333 221° Southwest 84 97 6,000  Level Orlando TRACON
Thu 04:35:18 PM 28.6833 -81.5500 221° Southwest 84 97 6,000  Level Orlando TRACON
Thu 04:36:18 PM 28.6667 -81.5667 221° Southwest 87 100 6,000  Level Orlando TRACON
Thu 04:37:18 PM 28.6500 -81.5833 221° Southwest 88 101 6,000  Level Orlando TRACON
Thu 04:38:19 PM 28.6333 -81.6000 221° Southwest 86 99 6,000  Level Orlando TRACON
Thu 04:39:19 PM 28.6000 -81.6167 204° Southwest 89 102 6,000  Level Orlando TRACON
Thu 04:40:19 PM 28.5833 -81.6167 180° South 90 104 6,000  Level Orlando TRACON
Thu 04:41:20 PM 28.5667 -81.6333 221° Southwest 93 107 6,000  Level Orlando TRACON
Thu 04:42:20 PM 28.5333 -81.6500 204° Southwest 91 105 6,000  Level Orlando TRACON
Thu 04:43:20 PM 28.5167 -81.6667 221° Southwest 89 102 6,000  Level Orlando TRACON
Thu 04:44:20 PM 28.5000 -81.6833 221° Southwest 89 102 6,000  Level Orlando TRACON
Thu 04:45:20 PM 28.4667 -81.6833 180° South 86 99 6,000  Level Orlando TRACON
Thu 04:46:26 PM 28.4500 -81.7000 221° Southwest 88 101 6,000  Level Orlando TRACON
Thu 04:47:27 PM 28.4333 -81.7167 221° Southwest 88 101 6,000  Level Orlando TRACON
Thu 04:49:15 PM 28.3833 -81.7500 210° Southwest 91 105 6,000  Level Tampa TRACON
Thu 04:50:15 PM 28.3667 -81.7667 221° Southwest 90 104 6,000  Level Tampa TRACON
Thu 04:51:15 PM 28.3500 -81.7833 221° Southwest 92 106 6,000  Level Tampa TRACON
Thu 04:52:15 PM 28.3167 -81.7833 180° South 91 105 6,000  Level Tampa TRACON
Thu 04:53:15 PM 28.3000 -81.8000 221° Southwest 90 104 6,000  Level Tampa TRACON
Thu 04:54:21 PM 28.2833 -81.8167 221° Southwest 88 101 6,000  Level Tampa TRACON
Thu 04:55:21 PM 28.2500 -81.8333 204° Southwest 89 102 6,000  Level Tampa TRACON
Thu 04:56:15 PM 28.2333 -81.8500 221° Southwest 88 101 6,000  Level Tampa TRACON
Thu 04:57:21 PM 28.2167 -81.8667 221° Southwest 92 106 6,000  Level Tampa TRACON
Thu 04:58:21 PM 28.2000 -81.8833 221° Southwest 92 106 6,000  Level Tampa TRACON
Thu 04:59:22 PM 28.1667 -81.9000 204° Southwest 92 106 6,000  Level Tampa TRACON
Thu 05:00:21 PM 28.1500 -81.9000 180° South 90 104 6,000  Level Tampa TRACON
Thu 05:01:21 PM 28.1333 -81.9167 221° Southwest 90 104 6,000  Level Tampa TRACON
Thu 05:02:22 PM 28.1000 -81.9333 204° Southwest 88 101 6,000 -50 Level Tampa TRACON
Thu 05:03:22 PM 28.0833 -81.9500 221° Southwest 89 102 5,900 -200 Descending Tampa TRACON
Thu 05:04:22 PM 28.0667 -81.9667 221° Southwest 98 113 5,600 -400 Descending Tampa TRACON
Thu 05:05:22 PM 28.0333 -81.9833 204° Southwest 101 116 5,100 -300 Descending Tampa TRACON
Thu 05:06:22 PM 28.0167 -82.0000 221° Southwest 101 116 5,000 -50 Descending Tampa TRACON
Thu 05:07:22 PM 27.9833 -82.0167 204° Southwest 98 113 5,000  Level Tampa TRACON
Thu 05:08:22 PM 27.9667 -82.0333 221° Southwest 93 107 5,000  Level Tampa TRACON
Thu 05:09:22 PM 27.9500 -82.0500 221° Southwest 93 107 5,000  Level Tampa TRACON
Thu 05:10:22 PM 27.9333 -82.0667 221° Southwest 95 109 5,000  Level Tampa TRACON
Thu 05:11:22 PM 27.9000 -82.0833 204° Southwest 95 109 5,000 -150 Level Tampa TRACON
Thu 05:12:22 PM 27.8833 -82.1000 221° Southwest 99 114 4,700 -400 Descending Tampa TRACON
Thu 05:13:22 PM 27.8667 -82.1333 241° Southwest 103 119 4,200 -350 Descending Tampa TRACON
Thu 05:14:22 PM 27.8333 -82.1500 204° Southwest 104 120 4,000 -100 Descending Tampa TRACON
Thu 05:15:22 PM 27.8167 -82.1667 221° Southwest 98 113 4,000  Level Tampa TRACON
Thu 05:16:22 PM 27.8000 -82.1833 221° Southwest 97 112 4,000  Level Tampa TRACON
Thu 05:17:22 PM 27.7833 -82.2000 222° Southwest 96 110 4,000  Level Tampa TRACON
Thu 05:18:22 PM 27.7500 -82.2167 204° Southwest 95 109 4,000 -99 Level Tampa TRACON
Thu 05:19:23 PM 27.7333 -82.2500 241° Southwest 99 114 3,800 -347 Descending Tampa TRACON
Thu 05:20:23 PM 27.7167 -82.2667 222° Southwest 108 124 3,300 -400 Descending Tampa TRACON
Thu 05:21:23 PM 27.6833 -82.2833 204° Southwest 115 132 3,000 -151 Descending Tampa TRACON
Thu 05:22:22 PM 27.6667 -82.3000 222° Southwest 112 129 3,000  Level Tampa TRACON
Thu 05:23:17 PM 27.6333 -82.3000 180° South 113 130 3,000  Level Tampa TRACON
Thu 05:24:17 PM 27.6000 -82.3167 204° Southwest 114 131 3,000  Level Tampa TRACON
Thu 05:25:17 PM 27.5667 -82.3167 180° South 114 131 3,000  Level Tampa TRACON
Thu 05:26:17 PM 27.5333 -82.3167 180° South 116 133 3,000  Level Tampa TRACON
Thu 05:27:23 PM 27.5000 -82.3167 180° South 117 135 3,000  Level Tampa TRACON
Thu 05:28:17 PM 27.4667 -82.3333 204° Southwest 116 133 3,000  Level Tampa TRACON
Thu 05:29:17 PM 27.4333 -82.3333 180° South 116 133 3,000  Level Tampa TRACON
Thu 05:30:17 PM 27.4167 -82.3167 138° Southeast 118 136 3,000  Level Tampa TRACON
Thu 05:31:17 PM 27.3833 -82.3000 156° South 123 142 3,000  Level Tampa TRACON
Thu 05:32:17 PM 27.3667 -82.2833 138° Southeast 123 142 3,000  Level Tampa TRACON
Thu 05:33:17 PM 27.3333 -82.2667 156° South 115 132 3,000  Level Tampa TRACON
Thu 05:34:17 PM 27.3000 -82.2500 156° South 118 136 3,000  Level Tampa TRACON
Thu 05:35:17 PM 27.2667 -82.2500 180° South 118 136 3,000  Level Tampa TRACON
Thu 05:36:17 PM 27.2500 -82.2667 222° Southwest 98 113 3,000  Level Tampa TRACON
Thu 05:37:17 PM 27.2500 -82.3000 270° West 99 114 3,000  Level Tampa TRACON
Thu 05:38:17 PM 27.2333 -82.3333 241° Southwest 97 112 3,000  Level Tampa TRACON
Thu 05:39:17 PM 27.2333 -82.3667 270° West 97 112 3,000  Level Tampa TRACON
Thu 05:40:11 PM 27.2333 -82.3833 270° West 96 110 3,000  Level Tampa TRACON
Thu 05:41:11 PM 27.2667 -82.4000 336° Northwest 101 116 3,000 -100 Level Tampa TRACON
Thu 05:42:11 PM 27.2833 -82.4333 299° West 102 117 2,800 -397 Descending Tampa TRACON
Thu 05:43:12 PM 27.3000 -82.4500 318° Northwest 98 113 2,200 -496 Descending Tampa TRACON
Thu 05:44:12 PM 27.3167 -82.4667 318° Northwest 97 112 1,800 -400 Descending Tampa TRACON
Thu 05:45:12 PM 27.3333 -82.4833 318° Northwest 90 104 1,400 -400 Descending Tampa TRACON
Thu 05:46:12 PM 27.3500 -82.5167 299° West 79 91 1,000 -400 Descending Tampa TRACON
Thu 05:47:12 PM 27.3667 -82.5333 318° Northwest 77 89 600 -139 Descending Tampa TRACON
Thu 05:49:48 PM 27.4000 -82.5667 38° Northeast 41 47 500 189 Descending Tampa TRACON
Thu 05:50:54 PM 27.4167 -82.5667 360° North 85 98 1,300 600 Climbing Tampa TRACON
Thu 05:51:48 PM 27.4500 -82.5667 360° North 82 94 1,700 611 Climbing Tampa TRACON
Thu 05:52:42 PM 27.4667 -82.5667 360° North 88 101 2,400 650 Climbing Tampa TRACON
Thu 05:53:48 PM 27.4833 -82.5500 42° Northeast 96 110 3,000 273 Climbing Tampa TRACON
Thu 05:54:54 PM 27.5000 -82.5000 69° East 131 151 3,000  Level Tampa TRACON
Thu 05:55:49 PM 27.5167 -82.4667 61° Northeast 129 148 3,000 105 Level Tampa TRACON
Thu 05:56:48 PM 27.5333 -82.4500 42° Northeast 119 137 3,200 368 Climbing Tampa TRACON
Thu 05:57:43 PM 27.5500 -82.4167 61° Northeast 115 132 3,700 417 Climbing Tampa TRACON
Thu 05:58:43 PM 27.5667 -82.3833 61° Northeast 120 138 4,000 150 Climbing Tampa TRACON
Thu 05:59:43 PM 27.5833 -82.3667 42° Northeast 129 148 4,000 45 Level Tampa TRACON
Thu 06:00:55 PM 27.6167 -82.3333 42° Northeast 128 147 4,100  Climbing Tampa TRACON
Thu 06:01:49 PM 27.6500 -82.3167 24° Northeast 128 147 4,000 -59 Descending Tampa TRACON
Thu 06:02:37 PM 27.6667 -82.3000 42° Northeast 127 146 4,000  Level Tampa TRACON
Thu 06:03:55 PM 27.7167 -82.2667 31° Northeast 125 144 4,000  Level Tampa TRACON
Thu 06:04:49 PM 27.7333 -82.2333 61° Northeast 127 146 4,000 56 Level Tampa TRACON
Thu 06:05:43 PM 27.7500 -82.2000 61° Northeast 129 148 4,100  Climbing Tampa TRACON
Thu 06:06:31 PM 27.7667 -82.1833 42° Northeast 130 150 4,000 -50 Descending Tampa TRACON
Thu 06:07:43 PM 27.8000 -82.1500 41° Northeast 130 150 4,000 -190 Level Tampa TRACON
Thu 06:08:37 PM 27.8167 -82.1167 61° Northeast 127 146 3,600 -444 Descending Tampa TRACON
Thu 06:09:31 PM 27.8333 -82.1000 41° Northeast 115 132 3,200 -273 Descending Tampa TRACON
Thu 06:10:49 PM 27.8667 -82.0500 53° Northeast 114 131 3,000 -90 Descending Tampa TRACON
Thu 06:11:44 PM 27.8833 -82.0333 41° Northeast 115 132 3,000  Level Tampa TRACON
Thu 06:12:49 PM 27.8833 -82.0000 90° East 115 132 3,000  Level Tampa TRACON
Thu 06:13:38 PM 27.9000 -81.9667 60° Northeast 115 132 3,000 -55 Level Tampa TRACON
Thu 06:14:38 PM 27.9167 -81.9333 60° Northeast 116 133 2,900 -300 Descending Tampa TRACON
Thu 06:15:38 PM 27.9333 -81.9000 60° Northeast 127 146 2,400 -450 Descending Tampa TRACON
Thu 06:16:38 PM 27.9500 -81.8667 60° Northeast 117 135 2,000 -263 Descending Tampa TRACON
Thu 06:17:32 PM 27.9833 -81.8500 24° Northeast 112 129 1,900  Descending Tampa TRACON
Thu 06:18:38 PM 28.0167 -81.8500 360° North 115 132 2,000 48 Climbing Tampa TRACON
Thu 06:19:38 PM 28.0167 -81.8833 270° West 121 139 2,000 -211 Level Tampa TRACON
Thu 06:20:32 PM 28.0167 -81.9000 270° West 107 123 1,600 -550 Descending Tampa TRACON
Thu 06:21:38 PM 28.0000 -81.9333 240° Southwest 101 116 900 -333 Descending Tampa TRACON
Thu 06:22:38 PM 28.0000 -81.9667 270° West 94 108 900 31 Level Tampa TRACON
Thu 06:24:50 PM 27.9833 -82.0333 36° Northeast 91 105 1,000 233 Climbing Tampa TRACON
Thu 06:25:38 PM 28.0000 -82.0500 319° Northwest 90 104 1,600 588 Climbing Tampa TRACON
Thu 06:26:32 PM 28.0167 -82.0500 360° North 112 129 2,000 571 Climbing Tampa TRACON
Thu 06:27:44 PM 28.0500 -82.0500 360° North 101 116 2,800 524 Climbing Tampa TRACON
Thu 06:28:38 PM 28.0667 -82.0167 60° Northeast 117 135 3,100 157 Climbing Tampa TRACON
Thu 06:29:39 PM 28.0833 -82.0000 41° Northeast 119 137 3,100 -50 Level Tampa TRACON
Thu 06:30:39 PM 28.1167 -81.9667 41° Northeast 123 142 3,000 -100 Descending Tampa TRACON
Thu 06:31:39 PM 28.1500 -81.9333 41° Northeast 129 148 2,900 -53 Descending Tampa TRACON
Thu 06:32:33 PM 28.1667 -81.9167 41° Northeast 127 146 2,900 31 Level Tampa TRACON
Thu 06:34:50 PM 28.2167 -81.8500 50° Northeast 116 133 3,000 30 Climbing Orlando TRACON
Thu 06:35:56 PM 28.2500 -81.8333 24° Northeast 112 129 3,000 48 Level Orlando TRACON
Thu 06:36:56 PM 28.2667 -81.8167 41° Northeast 107 123 3,100 50 Climbing Orlando TRACON
Thu 06:37:56 PM 28.3000 -81.8167 360° North 107 123 3,100  Level Orlando TRACON
Thu 06:38:56 PM 28.3333 -81.8000 24° Northeast 111 128 3,100 -47 Level Orlando TRACON
Thu 06:40:03 PM 28.3667 -81.8000 360° North 117 135 3,000 -45 Descending Orlando TRACON
Thu 06:41:08 PM 28.4000 -81.7667 41° Northeast 110 127 3,000  Level Orlando TRACON
Thu 06:42:02 PM 28.4167 -81.7500 41° Northeast 107 123 3,000  Level Orlando TRACON
Thu 06:42:57 PM 28.4333 -81.7333 41° Northeast 107 123 3,000  Level Orlando TRACON
Thu 06:43:57 PM 28.4667 -81.7167 24° Northeast 109 125 3,000  Level Orlando TRACON
Thu 06:44:57 PM 28.4833 -81.7000 41° Northeast 113 130 3,000  Level Orlando TRACON
Thu 06:46:03 PM 28.5167 -81.6833 24° Northeast 116 133 3,000  Level Orlando TRACON
Thu 06:47:03 PM 28.5500 -81.6500 41° Northeast 119 137 3,000  Level Orlando TRACON
Thu 06:48:03 PM 28.5667 -81.6333 41° Northeast 117 135 3,000  Level Orlando TRACON
Thu 06:48:57 PM 28.6000 -81.6167 24° Northeast 115 132 3,000  Level Orlando TRACON
Thu 06:49:57 PM 28.6333 -81.6000 24° Northeast 115 132 3,000  Level Orlando TRACON
Thu 06:50:57 PM 28.6500 -81.5833 41° Northeast 115 132 3,000  Level Orlando TRACON
Thu 06:51:57 PM 28.6833 -81.5500 41° Northeast 118 136 3,000  Level Orlando TRACON
Thu 06:52:57 PM 28.7000 -81.5333 41° Northeast 113 130 3,000  Level Orlando TRACON
Thu 06:53:58 PM 28.7333 -81.5167 24° Northeast 115 132 3,000  Level Orlando TRACON
Thu 06:54:58 PM 28.7667 -81.5000 24° Northeast 115 132 3,000  Level Orlando TRACON
Thu 06:55:58 PM 28.7833 -81.4833 41° Northeast 117 135 3,000  Level Orlando TRACON
Thu 06:56:58 PM 28.8167 -81.4500 41° Northeast 116 133 3,000  Level Orlando TRACON
Thu 06:58:10 PM 28.8500 -81.4333 24° Northeast 118 136 3,000  Level Orlando TRACON
Thu 06:58:52 PM 28.8667 -81.4167 41° Northeast 118 136 3,000  Level Orlando TRACON
Thu 06:59:56 PM 28.8925 -81.3986 31° Northeast 116 133 3,000  Level Jacksonville Center
Thu 07:00:57 PM 28.9194 -81.3767 35° Northeast 114 131 3,000  Level Jacksonville Center
Thu 07:01:58 PM 28.9464 -81.3550 35° Northeast 115 132 3,000  Level Jacksonville Center
Thu 07:02:59 PM 28.9731 -81.3356 33° Northeast 114 131 3,000  Level Jacksonville Center
Thu 07:04:00 PM 28.9853 -81.3022 67° East 116 133 3,000  Level Jacksonville Center
Thu 07:05:01 PM 28.9911 -81.2664 79° East 117 135 3,000 -103 Level Jacksonville Center
Thu 07:05:56 PM 28.9969 -81.2308 79° East 118 136 2,800 -362 Descending Jacksonville Center
Thu 07:06:57 PM 29.0047 -81.1950 76° East 118 136 2,300 -397 Descending Jacksonville Center
Thu 07:07:57 PM 29.0125 -81.1569 77° East 125 144 2,000 -149 Descending Jacksonville Center
Thu 07:08:58 PM 29.0206 -81.1189 76° East 108 124 2,000  Level Jacksonville Center
Thu 07:09:59 PM 29.0283 -81.0831 76° East 124 143 2,000  Level Jacksonville Center
Thu 07:11:06 PM 29.0361 -81.0450 77° East 117 135 2,000 -141 Level Jacksonville Center
Thu 07:12:07 PM 29.0439 -81.0114 75° East 113 130 1,700 -689 Descending Jacksonville Center
Thu 07:13:08 PM 29.0456 -80.9806 86° East 94 108 600 -1,082 Descending Jacksonville Center

Login

Don't have an account? Register now (free) for customized features, flight alerts, and more!